Time;durP1;ratioP1;P1;durP2;ratioP2;P2;SDS_P1;SDS_P2;PMS_P1;PMS_P2;Temp;Humidity;BMP_temperature;BMP_pressure;BME280_temperature;BME280_humidity;BME280_pressure;Samples;Min_cycle;Max_cycle;Signal;HPM_P1;HPM_P2
2021/06/30 00:02:59;;;;;;;6.45;3.05;;;;;;;22.60;53.65;99432.13;2060098;85;27531;-63
2021/06/30 00:06:01;;;;;;;8.63;2.40;;;;;;;22.58;53.63;99446.98;2062375;85;28764;-64
2021/06/30 00:09:06;;;;;;;5.17;1.77;;;;;;;22.55;53.85;99454.99;2062409;86;31112;-64
2021/06/30 00:12:08;;;;;;;3.92;2.10;;;;;;;22.52;53.73;99470.34;2060282;85;32979;-63
2021/06/30 00:15:17;;;;;;;3.27;1.25;;;;;;;22.45;53.72;99472.93;2062333;86;29813;-61
2021/06/30 00:18:22;;;;;;;4.05;1.40;;;;;;;22.41;53.66;99478.39;2062444;86;27556;-64
2021/06/30 00:21:24;;;;;;;2.08;1.00;;;;;;;22.36;53.93;99477.18;2046203;86;28626;-62
2021/06/30 00:24:26;;;;;;;5.58;1.62;;;;;;;22.29;54.41;99478.38;2033827;86;31079;-62
2021/06/30 00:27:28;;;;;;;3.42;1.27;;;;;;;22.22;55.13;99477.39;2027124;87;33061;-62
2021/06/30 00:30:30;;;;;;;6.15;1.57;;;;;;;22.17;55.56;99472.45;2027235;87;29676;-60
2021/06/30 00:33:32;;;;;;;6.33;1.57;;;;;;;22.14;56.29;99464.08;2029304;86;27554;-59
2021/06/30 00:36:47;;;;;;;4.53;1.80;;;;;;;22.07;56.85;99454.03;2027151;87;28602;-60
2021/06/30 00:39:48;;;;;;;7.03;1.95;;;;;;;21.97;57.27;99448.26;2027243;87;34564;-59
2021/06/30 00:42:51;;;;;;;11.03;2.50;;;;;;;21.89;57.96;99432.41;2035895;86;33187;-64
2021/06/30 00:45:52;;;;;;;4.67;2.37;;;;;;;21.84;58.53;99421.50;2062309;86;29703;-70
2021/06/30 00:48:54;;;;;;;6.58;2.25;;;;;;;21.79;58.77;99413.50;2062364;85;27559;-59
2021/06/30 00:51:56;;;;;;;7.50;2.77;;;;;;;21.70;59.26;99386.23;2062321;86;28785;-68
2021/06/30 00:54:58;;;;;;;6.58;2.00;;;;;;;21.57;60.44;99359.97;2059989;85;31146;-62
2021/06/30 00:58:00;;;;;;;5.90;2.33;;;;;;;21.53;60.97;99357.23;2062281;85;33818;-63
2021/06/30 01:01:02;;;;;;;10.80;2.30;;;;;;;21.46;61.29;99345.33;2055868;85;30416;-59
2021/06/30 01:04:04;;;;;;;16.67;2.70;;;;;;;21.37;61.84;99334.42;2027311;87;27653;-63
2021/06/30 01:07:08;;;;;;;7.55;2.05;;;;;;;21.22;62.35;99316.56;2027341;87;29413;-64
2021/06/30 01:10:13;;;;;;;5.90;1.90;;;;;;;21.08;62.74;99303.09;2027536;87;31956;-64
2021/06/30 01:13:16;;;;;;;16.82;3.37;;;;;;;20.89;63.09;99259.84;2029301;86;32228;-63
2021/06/30 01:16:19;;;;;;;10.72;2.85;;;;;;;20.82;64.31;99250.15;2027214;87;29646;-67
2021/06/30 01:19:23;;;;;;;9.70;2.47;;;;;;;20.57;65.32;99237.85;2029148;86;27532;-65
2021/06/30 01:22:26;;;;;;;13.70;2.37;;;;;;;20.27;66.18;99205.30;2027263;87;28603;-61
2021/06/30 01:25:28;;;;;;;10.10;2.52;;;;;;;20.01;68.93;99157.33;2027586;87;31239;-65
2021/06/30 01:28:30;;;;;;;8.20;2.45;;;;;;;19.71;68.74;99099.77;2031591;86;33098;-64
2021/06/30 01:31:32;;;;;;;7.67;2.40;;;;;;;19.39;69.20;99069.63;2029835;86;29683;-63
2021/06/30 01:34:35;;;;;;;13.08;2.45;;;;;;;19.16;69.75;99087.00;2029930;86;27570;-61
2021/06/30 01:37:49;;;;;;;11.45;2.10;;;;;;;19.09;71.52;99107.65;2032446;86;28724;-61
2021/06/30 01:40:56;;;;;;;15.68;2.00;;;;;;;18.97;70.89;99105.70;2064990;86;31007;-62
2021/06/30 01:43:58;;;;;;;5.62;1.50;;;;;;;18.88;71.46;99259.97;2064973;86;32930;-62
2021/06/30 01:47:01;;;;;;;4.10;1.62;;;;;;;18.78;72.10;99255.98;2064985;85;29666;-62
2021/06/30 01:50:05;;;;;;;2.22;1.37;;;;;;;18.71;71.92;99237.24;2062798;85;27481;-61
2021/06/30 01:53:07;;;;;;;3.05;1.75;;;;;;;18.67;71.76;99258.41;2065250;86;28727;-63
2021/06/30 01:56:09;;;;;;;3.90;1.12;;;;;;;18.62;71.52;99263.44;2065078;85;31010;-61
2021/06/30 01:59:13;;;;;;;2.65;1.20;;;;;;;18.57;71.62;99266.63;2044446;85;33141;-63
2021/06/30 02:02:15;;;;;;;4.37;1.10;;;;;;;18.53;71.51;99264.73;2030032;86;30459;-62
2021/06/30 02:05:20;;;;;;;2.42;0.98;;;;;;;18.47;71.53;99278.89;2029888;87;27533;-62
2021/06/30 02:08:22;;;;;;;4.65;0.90;;;;;;;18.40;71.51;99275.09;2031680;86;29702;-64
2021/06/30 02:11:25;;;;;;;12.68;9.93;;;;;;;18.34;71.60;99280.63;2029401;86;31109;-62
2021/06/30 02:14:27;;;;;;;1.87;1.40;;;;;;;18.30;71.71;99277.00;2029651;87;32940;-61
2021/06/30 02:17:28;;;;;;;2.92;1.70;;;;;;;18.26;71.79;99268.84;2029805;86;29688;-62
2021/06/30 02:20:30;;;;;;;3.83;1.95;;;;;;;18.24;71.82;99273.03;2031551;86;27777;-62
2021/06/30 02:23:32;;;;;;;4.85;2.20;;;;;;;18.18;72.02;99278.56;2029852;86;28639;-61
2021/06/30 02:26:34;;;;;;;2.92;1.80;;;;;;;18.18;72.02;99278.56;2028081;86;31085;-61
2021/06/30 02:29:36;;;;;;;2.30;1.55;;;;;;;17.97;72.07;99257.10;2029245;86;33881;-61
2021/06/30 02:32:38;;;;;;;3.90;1.20;;;;;;;18.11;72.00;99293.74;2027356;87;29559;-61
2021/06/30 02:35:41;;;;;;;1.07;1.00;;;;;;;18.11;72.19;99310.00;2027327;87;27592;-61
2021/06/30 02:38:43;;;;;;;2.15;1.35;;;;;;;18.11;72.37;99303.71;2040297;86;29532;-61
2021/06/30 02:41:45;;;;;;;1.95;1.57;;;;;;;18.08;72.34;99298.10;2062425;85;31095;-61
2021/06/30 02:44:46;;;;;;;3.22;1.50;;;;;;;17.97;72.51;99315.37;2062383;85;33195;-62
2021/06/30 02:47:49;;;;;;;7.50;1.72;;;;;;;17.97;72.51;99315.37;2061502;86;29684;-62
2021/06/30 02:50:54;;;;;;;2.42;1.10;;;;;;;17.92;72.44;99317.17;2061821;86;27595;-62
2021/06/30 02:53:56;;;;;;;3.08;1.20;;;;;;;17.89;72.46;99322.88;2062355;85;28866;-62
2021/06/30 02:56:57;;;;;;;5.87;1.75;;;;;;;17.86;72.57;99329.95;2062206;85;32178;-61
2021/06/30 02:59:59;;;;;;;2.85;1.05;;;;;;;17.85;72.61;99326.88;2036211;86;33955;-62
2021/06/30 03:03:01;;;;;;;3.72;1.10;;;;;;;17.72;72.67;99300.63;2027232;87;29761;-62
2021/06/30 03:06:03;;;;;;;1.07;1.02;;;;;;;17.87;72.90;99327.59;2027304;87;27899;-60
2021/06/30 03:09:05;;;;;;;4.70;1.12;;;;;;;17.90;72.93;99315.59;2029271;86;29394;-59
2021/06/30 03:12:07;;;;;;;2.52;1.10;;;;;;;17.94;73.01;99322.43;2027362;86;31013;-59
2021/06/30 03:15:11;;;;;;;3.52;1.30;;;;;;;17.97;73.08;99322.14;2027182;86;32994;-60
2021/06/30 03:18:13;;;;;;;2.03;1.10;;;;;;;17.99;72.85;99316.59;2029610;86;29658;-59
2021/06/30 03:21:14;;;;;;;3.50;1.25;;;;;;;17.97;72.90;99326.20;2027312;87;27558;-59
2021/06/30 03:24:16;;;;;;;3.25;1.20;;;;;;;17.95;72.89;99319.23;2027229;87;29505;-60
2021/06/30 03:27:18;;;;;;;1.35;1.25;;;;;;;17.96;73.23;99325.85;2028739;87;31007;-60
2021/06/30 03:30:20;;;;;;;2.00;0.93;;;;;;;17.99;73.11;99331.50;2036851;86;33277;-61
2021/06/30 03:33:21;;;;;;;1.40;1.10;;;;;;;18.03;73.12;99331.56;2022777;88;29960;-60
2021/06/30 03:36:23;;;;;;;4.65;1.40;;;;;;;18.09;73.41;99329.63;2008238;88;27549;-61
2021/06/30 03:39:25;;;;;;;1.57;0.98;;;;;;;18.31;73.52;99337.00;2060077;86;28725;-62
2021/06/30 03:42:27;;;;;;;6.65;1.45;;;;;;;18.31;73.52;99337.00;2059607;86;31008;-62
2021/06/30 03:45:29;;;;;;;5.35;1.72;;;;;;;18.40;73.38;99346.09;2059571;86;33013;-61
2021/06/30 03:48:31;;;;;;;2.33;1.10;;;;;;;18.48;73.42;99351.11;2059759;86;29360;-61
2021/06/30 03:51:32;;;;;;;2.70;1.55;;;;;;;18.66;73.92;99351.17;2059674;86;27528;-62
2021/06/30 03:54:34;;;;;;;2.45;1.10;;;;;;;18.77;73.33;99360.09;2059634;86;28639;-62
2021/06/30 03:57:36;;;;;;;2.35;1.20;;;;;;;18.79;73.41;99360.28;2059612;86;31255;-62
2021/06/30 04:00:38;;;;;;;2.83;1.20;;;;;;;18.82;73.47;99357.78;2061513;86;33017;-62
2021/06/30 04:03:43;;;;;;;2.87;1.55;;;;;;;18.83;73.17;99359.49;2049517;86;29823;-62
2021/06/30 04:06:43;;;;;;;2.62;1.47;;;;;;;18.80;73.50;99363.34;2020735;86;27521;-62
2021/06/30 04:09:45;;;;;;;1.92;1.20;;;;;;;18.77;73.49;99370.45;2009343;86;28915;-62
2021/06/30 04:12:46;;;;;;;3.27;1.30;;;;;;;18.77;73.43;99376.37;1993670;89;31015;-62
2021/06/30 04:15:48;;;;;;;2.02;1.35;;;;;;;18.79;73.57;99385.22;2005667;86;33108;-63
2021/06/30 04:18:50;;;;;;;1.40;1.10;;;;;;;18.83;73.82;99385.27;2050154;86;29699;-63
2021/06/30 04:21:52;;;;;;;1.30;1.20;;;;;;;18.83;73.91;99386.63;2049897;86;27742;-63
2021/06/30 04:24:54;;;;;;;2.02;1.37;;;;;;;18.84;74.16;99389.70;2050265;86;28721;-63
2021/06/30 04:27:55;;;;;;;1.55;1.30;;;;;;;18.84;74.16;99389.70;2030078;86;31192;-62
2021/06/30 04:30:57;;;;;;;2.42;1.30;;;;;;;18.84;74.17;99389.70;2032486;87;33885;-64
2021/06/30 04:33:59;;;;;;;1.60;1.00;;;;;;;18.86;74.04;99396.31;2031583;86;29614;-64
2021/06/30 04:37:00;;;;;;;1.87;0.98;;;;;;;18.86;74.15;99387.69;2047296;86;27509;-62
2021/06/30 04:40:05;;;;;;;3.15;1.10;;;;;;;18.88;74.24;99389.72;2036944;86;29435;-63
2021/06/30 04:43:06;;;;;;;4.53;1.45;;;;;;;18.91;74.23;99389.94;2015439;87;31312;-62
2021/06/30 04:46:08;;;;;;;1.77;0.90;;;;;;;18.94;74.26;99382.37;2024550;87;33032;-62
2021/06/30 04:49:10;;;;;;;4.10;1.22;;;;;;;18.99;74.28;99385.97;1994009;89;30640;-63
2021/06/30 04:52:12;;;;;;;0.70;0.70;;;;;;;19.04;74.22;99388.22;1995768;87;27528;-63
2021/06/30 04:55:13;;;;;;;1.62;1.15;;;;;;;19.09;74.37;99396.77;2047223;86;28571;-64
2021/06/30 04:58:15;;;;;;;1.72;0.90;;;;;;;19.20;74.39;99400.60;2047205;87;31227;-63
2021/06/30 05:01:17;;;;;;;2.40;0.90;;;;;;;19.42;74.56;99386.22;2047172;86;33876;-63
2021/06/30 05:04:19;;;;;;;5.97;1.02;;;;;;;19.69;74.60;99392.05;2044169;87;30397;-63
2021/06/30 05:07:20;;;;;;;1.65;0.88;;;;;;;19.99;74.30;99388.55;2047292;86;27552;-62
2021/06/30 05:10:22;;;;;;;1.67;0.90;;;;;;;20.28;73.92;99391.44;2047319;86;28746;-64
2021/06/30 05:13:24;;;;;;;4.03;1.10;;;;;;;20.49;73.62;99389.69;2026339;87;31066;-63
2021/06/30 05:16:26;;;;;;;2.30;0.95;;;;;;;20.58;73.08;99390.58;1994204;88;33249;-63
2021/06/30 05:19:29;;;;;;;2.37;0.93;;;;;;;20.59;73.07;99394.14;1994223;89;29788;-63
2021/06/30 05:22:31;;;;;;;1.32;0.75;;;;;;;20.58;72.91;99397.39;1997155;87;27572;-62
2021/06/30 05:25:32;;;;;;;3.17;1.25;;;;;;;20.56;72.70;99408.94;2046070;87;28041;-63
2021/06/30 05:28:34;;;;;;;2.02;1.10;;;;;;;20.58;72.84;99416.44;2046947;86;31081;-63
2021/06/30 05:31:36;;;;;;;0.93;0.80;;;;;;;20.55;72.65;99415.39;2047227;87;33925;-63
2021/06/30 05:34:38;;;;;;;0.72;0.72;;;;;;;20.54;72.36;99412.33;2043645;86;29951;-63
2021/06/30 05:37:40;;;;;;;4.12;1.25;;;;;;;20.49;72.52;99403.79;2047286;86;27525;-63
2021/06/30 05:40:41;;;;;;;0.80;0.80;;;;;;;20.48;72.42;99402.08;2047329;87;28904;-63
2021/06/30 05:43:43;;;;;;;0.80;0.80;;;;;;;20.44;72.30;99405.64;2043895;86;31983;-65
2021/06/30 05:46:45;;;;;;;3.70;0.85;;;;;;;20.42;72.39;99397.31;2047247;86;33034;-63
2021/06/30 05:49:47;;;;;;;2.37;0.60;;;;;;;20.41;72.26;99399.69;2047259;86;29687;-64
2021/06/30 05:52:48;;;;;;;0.93;0.70;;;;;;;20.40;72.12;99400.17;2041509;86;27496;-64
2021/06/30 05:55:50;;;;;;;4.22;0.60;;;;;;;20.33;72.10;99401.33;1994443;88;29443;-64
2021/06/30 05:58:52;;;;;;;2.08;0.70;;;;;;;20.32;72.15;99403.70;1994459;88;31091;-63
2021/06/30 06:01:54;;;;;;;1.32;0.60;;;;;;;20.36;72.33;99410.19;1994134;89;34006;-64
2021/06/30 06:04:56;;;;;;;2.80;1.10;;;;;;;20.40;72.07;99397.45;1997401;87;29859;-64
2021/06/30 06:07:58;;;;;;;0.70;0.70;;;;;;;20.47;71.97;99397.66;1994478;88;27590;-64
2021/06/30 06:11:00;;;;;;;0.65;0.60;;;;;;;20.56;72.31;99402.62;1994360;88;29785;-65
2021/06/30 06:14:03;;;;;;;2.17;0.90;;;;;;;20.71;72.30;99391.45;2020452;87;31898;-64
2021/06/30 06:17:04;;;;;;;1.57;0.60;;;;;;;21.10;73.04;99396.38;2047322;86;33812;-65
2021/06/30 06:20:10;;;;;;;1.65;0.60;;;;;;;22.05;72.80;99394.21;2047374;86;29702;-65
2021/06/30 06:23:11;;;;;;;1.45;0.47;;;;;;;22.53;71.38;99398.35;2044068;87;27587;-65
2021/06/30 06:26:14;;;;;;;2.25;0.80;;;;;;;22.81;70.94;99400.64;2047447;86;29821;-64
2021/06/30 06:29:16;;;;;;;1.95;0.80;;;;;;;22.86;69.47;99406.93;2047431;86;31170;-64
2021/06/30 06:32:18;;;;;;;2.37;0.70;;;;;;;22.90;69.32;99406.39;2047349;86;33243;-63
2021/06/30 06:35:20;;;;;;;0.88;0.60;;;;;;;22.87;68.45;99418.19;2001723;86;30571;-63
2021/06/30 06:38:23;;;;;;;2.67;0.62;;;;;;;22.82;68.35;99419.23;1994428;89;27561;-63
2021/06/30 06:41:25;;;;;;;1.45;1.02;;;;;;;22.77;67.77;99415.67;1994294;89;29317;-64
2021/06/30 06:44:27;;;;;;;5.53;1.25;;;;;;;22.73;68.11;99417.05;1997168;86;31185;-63
2021/06/30 06:47:29;;;;;;;2.58;1.20;;;;;;;22.75;67.95;99424.55;2010199;87;33747;-64
2021/06/30 06:50:31;;;;;;;3.70;1.40;;;;;;;22.80;67.29;99420.79;2032756;86;29570;-63
2021/06/30 06:53:33;;;;;;;1.67;1.05;;;;;;;22.76;66.84;99420.27;2034196;87;27556;-63
2021/06/30 06:56:35;;;;;;;1.82;1.30;;;;;;;22.65;66.93;99414.37;2056689;86;28793;-63
2021/06/30 06:59:37;;;;;;;1.77;1.40;;;;;;;22.56;67.04;99421.73;2056515;86;31077;-63
2021/06/30 07:02:39;;;;;;;2.85;1.37;;;;;;;22.43;67.04;99427.22;2052523;86;34010;-63
2021/06/30 07:05:40;;;;;;;2.33;1.40;;;;;;;22.30;66.32;99435.94;2052845;86;29741;-62
2021/06/30 07:08:42;;;;;;;2.02;1.80;;;;;;;22.18;66.58;99435.94;2052936;86;27528;-63
2021/06/30 07:11:44;;;;;;;2.15;1.50;;;;;;;22.24;66.53;99440.71;2008863;86;29545;-63
2021/06/30 07:14:46;;;;;;;2.55;1.98;;;;;;;22.46;66.61;99439.68;2028274;86;31175;-63
2021/06/30 07:17:48;;;;;;;1.98;1.87;;;;;;;22.72;66.47;99450.34;2028443;87;33042;-63
2021/06/30 07:20:51;;;;;;;2.20;2.00;;;;;;;22.87;66.21;99445.50;2051516;86;29863;-62
2021/06/30 07:23:53;;;;;;;6.25;5.17;;;;;;;22.96;65.67;99449.05;2068471;86;27710;-63
2021/06/30 07:26:55;;;;;;;5.70;3.30;;;;;;;23.03;66.15;99448.16;2065210;86;28715;-63
2021/06/30 07:29:58;;;;;;;3.30;1.98;;;;;;;23.29;65.67;99452.47;2033237;87;31074;-63
2021/06/30 07:33:00;;;;;;;5.53;2.17;;;;;;;23.76;65.78;99451.12;2047651;87;33020;-64
2021/06/30 07:36:04;;;;;;;2.30;2.10;;;;;;;24.30;65.87;99443.83;2047182;87;29293;-64
2021/06/30 07:39:08;;;;;;;2.27;1.85;;;;;;;25.20;64.86;99432.84;2010368;87;27497;-64
2021/06/30 07:42:10;;;;;;;2.77;1.80;;;;;;;26.04;63.73;99435.47;2035849;87;32269;-64
2021/06/30 07:45:13;;;;;;;1.87;1.77;;;;;;;26.68;62.54;99446.82;2047542;87;31153;-64
2021/06/30 07:48:15;;;;;;;2.60;2.00;;;;;;;27.13;61.05;99444.19;2044273;86;32540;-64
2021/06/30 07:51:19;;;;;;;2.10;1.77;;;;;;;27.29;59.49;99437.48;2047547;87;29631;-64
2021/06/30 07:54:21;;;;;;;2.65;1.77;;;;;;;27.53;59.52;99440.22;2047765;87;27591;-63
2021/06/30 07:57:23;;;;;;;2.85;2.27;;;;;;;27.64;58.96;99451.11;2030222;87;28733;-63
2021/06/30 08:00:27;;;;;;;2.37;2.02;;;;;;;27.58;58.18;99454.72;1994532;89;31074;-64
2021/06/30 08:03:30;;;;;;;2.80;2.07;;;;;;;27.46;57.66;99464.64;2017646;87;32956;-63
2021/06/30 08:06:36;;;;;;;2.02;1.85;;;;;;;27.36;56.94;99463.63;2045494;87;30226;-63
2021/06/30 08:09:39;;;;;;;3.35;1.72;;;;;;;27.22;56.31;99465.48;1977314;89;27609;-62
2021/06/30 08:12:41;;;;;;;3.05;1.50;;;;;;;27.22;56.61;99466.85;2035395;87;28801;-65
2021/06/30 08:15:43;;;;;;;8.90;2.05;;;;;;;27.35;56.34;99479.27;2047706;87;30885;-64
2021/06/30 08:18:47;;;;;;;1.98;1.80;;;;;;;27.56;56.52;99475.55;2044500;86;32929;-62
2021/06/30 08:21:50;;;;;;;3.72;2.37;;;;;;;27.66;55.56;99461.92;2047521;87;29619;-64
2021/06/30 08:24:53;;;;;;;3.53;2.27;;;;;;;27.64;55.26;99466.79;2047812;87;27595;-64
2021/06/30 08:27:59;;;;;;;3.52;2.22;;;;;;;27.86;55.92;99475.20;2026519;86;28871;-62
2021/06/30 08:30:59;;;;;;;3.00;2.50;;;;;;;28.61;55.91;99480.16;1999472;88;31159;-67
2021/06/30 08:34:02;;;;;;;3.55;1.70;;;;;;;29.20;53.88;99472.78;1999506;88;33022;-64
2021/06/30 08:37:08;;;;;;;2.62;2.00;;;;;;;29.52;53.33;99477.00;2006961;86;29634;-63
2021/06/30 08:40:12;;;;;;;3.33;2.42;;;;;;;29.99;53.68;99471.72;1990533;89;27673;-65
2021/06/30 08:43:16;;;;;;;2.10;1.80;;;;;;;30.51;52.03;99462.33;1990425;89;28713;-63
2021/06/30 08:46:21;;;;;;;2.20;2.10;;;;;;;30.86;50.48;99464.53;1990246;88;31086;-63
2021/06/30 08:49:26;;;;;;;1.70;1.60;;;;;;;31.24;50.41;99478.69;2032313;86;34021;-63
2021/06/30 08:52:28;;;;;;;1.80;1.70;;;;;;;31.61;49.58;99477.19;2016998;86;29846;-63
2021/06/30 08:55:31;;;;;;;2.85;2.00;;;;;;;32.01;49.32;99479.95;2054442;86;27526;-63
2021/06/30 08:58:34;;;;;;;1.80;1.57;;;;;;;32.52;48.51;99491.98;2018975;86;28633;-66
2021/06/30 09:01:38;;;;;;;1.60;1.50;;;;;;;33.03;47.45;99489.00;1981385;89;31679;-65
2021/06/30 09:04:42;;;;;;;2.33;1.62;;;;;;;33.08;46.16;99497.14;2022756;86;33826;-63
2021/06/30 09:07:44;;;;;;;;;;;;;;;33.09;45.63;99502.98;2021454;86;29704;-62
2021/06/30 09:10:46;;;;;;;4.87;1.95;;;;;;;33.08;44.09;99502.69;2007122;86;27531;-63
2021/06/30 09:13:51;;;;;;;2.67;2.20;;;;;;;32.51;44.03;99509.73;1999206;88;28731;-64
2021/06/30 09:17:18;;;;;;;1.90;1.80;;;;;;;31.98;43.93;99516.43;1982327;89;31143;-62
2021/06/30 09:20:39;;;;;;;2.92;1.40;;;;;;;31.57;44.38;99506.45;1986209;89;29479;-63
2021/06/30 09:24:19;;;;;;;3.42;1.55;;;;;;;31.22;44.07;99508.51;1937189;91;29637;-64
2021/06/30 09:27:50;;;;;;;3.27;1.60;;;;;;;30.90;44.18;99511.41;1945251;88;27876;-62
2021/06/30 09:31:20;;;;;;;3.20;1.52;;;;;;;30.56;44.64;99515.05;1963082;90;27674;-62
2021/06/30 09:34:36;;;;;;;2.62;1.87;;;;;;;30.52;44.86;99504.10;1950818;90;28624;-62
2021/06/30 09:37:38;;;;;;;2.10;1.90;;;;;;;30.45;45.02;99495.33;1908614;92;32879;-62
2021/06/30 09:40:46;;;;;;;2.72;2.22;;;;;;;30.47;44.95;99504.79;1928227;92;29675;-63
2021/06/30 09:43:47;;;;;;;2.35;2.15;;;;;;;30.39;44.40;99503.68;1928510;90;27715;-62
2021/06/30 09:46:55;;;;;;;3.22;2.50;;;;;;;30.44;44.38;99496.95;2003778;88;28620;-62
2021/06/30 09:50:00;;;;;;;2.98;2.60;;;;;;;30.44;44.33;99494.19;1938364;91;27708;-62
2021/06/30 09:53:04;;;;;;;2.27;2.08;;;;;;;30.45;44.27;99497.26;1920132;91;48672;-62
2021/06/30 09:59:25;;;;;;;2.20;2.10;;;;;;;30.34;44.31;99498.84;1848665;96;27710;-63
2021/06/30 10:02:36;;;;;;;3.22;2.42;;;;;;;30.38;44.04;99504.75;1830224;97;29767;-60
2021/06/30 10:05:40;;;;;;;2.15;2.00;;;;;;;30.15;43.63;99498.78;1830040;97;30722;-63
2021/06/30 10:12:08;;;;;;;3.42;2.50;;;;;;;29.94;43.37;99507.44;1761697;99;30550;-61
2021/06/30 10:15:11;;;;;;;4.28;3.27;;;;;;;29.70;43.18;99509.91;1761055;100;27271;-62
2021/06/30 10:18:14;;;;;;;3.60;2.80;;;;;;;29.61;43.60;99507.95;1761160;101;28631;-62
2021/06/30 10:21:18;;;;;;;2.80;2.60;;;;;;;29.55;43.81;99501.92;1762021;100;31281;-61
2021/06/30 10:24:21;;;;;;;5.15;2.25;;;;;;;29.57;43.95;99505.30;1765132;100;33780;-61
2021/06/30 10:27:23;;;;;;;3.30;3.00;;;;;;;29.61;44.53;99505.19;1761086;101;30436;-61
2021/06/30 10:30:25;;;;;;;4.03;3.17;;;;;;;29.70;44.19;99489.20;1779668;100;27692;-61
2021/06/30 10:33:38;;;;;;;5.40;3.15;;;;;;;29.74;43.99;99494.61;1781081;100;29350;-62
2021/06/30 10:36:56;;;;;;;6.65;5.97;;;;;;;29.97;44.55;99491.28;1811804;96;31981;-61
2021/06/30 10:40:08;;;;;;;4.47;2.40;;;;;;;30.21;44.34;99487.36;1841193;96;33022;-62
2021/06/30 10:43:12;;;;;;;3.10;2.67;;;;;;;30.39;43.97;99494.01;1841213;96;30488;-61
2021/06/30 10:46:28;;;;;;;;;;;;;;;30.41;43.40;99500.16;1866777;94;27628;-62
2021/06/30 10:49:30;;;;;;;2.83;2.17;;;;;;;30.25;42.71;99496.90;1871907;93;29465;-62
2021/06/30 10:52:32;;;;;;;3.50;2.40;;;;;;;29.93;42.74;99501.05;1896968;91;31838;-62
2021/06/30 10:55:47;;;;;;;4.17;2.30;;;;;;;29.68;42.90;99499.11;1939938;90;32946;-61
2021/06/30 10:59:01;;;;;;;4.25;2.92;;;;;;;29.65;43.80;99504.20;1922078;91;29963;-62
2021/06/30 11:02:13;;;;;;;2.75;2.55;;;;;;;29.75;43.46;99500.44;1901778;93;27673;-63
2021/06/30 11:05:21;;;;;;;2.70;2.50;;;;;;;29.83;43.64;99504.30;1897407;93;29712;-62
2021/06/30 11:08:52;;;;;;;2.85;2.33;;;;;;;29.74;43.38;99505.65;1921856;91;31732;-62
2021/06/30 11:11:56;;;;;;;3.50;2.35;;;;;;;29.50;43.21;99503.14;1958267;90;32978;-61
2021/06/30 11:14:58;;;;;;;3.40;2.52;;;;;;;29.23;43.54;99510.11;2008770;86;29657;-61
2021/06/30 11:18:00;;;;;;;4.17;2.55;;;;;;;29.06;43.48;99518.03;2013958;88;27582;-62
2021/06/30 11:21:03;;;;;;;2.62;2.22;;;;;;;28.88;43.73;99522.33;1999069;87;28710;-60
2021/06/30 11:24:10;;;;;;;3.42;3.12;;;;;;;28.58;43.77;99532.42;2051174;86;31004;-61
2021/06/30 11:27:36;;;;;;;3.27;2.47;;;;;;;28.33;44.23;99528.92;2043344;86;33748;-61
2021/06/30 11:30:38;;;;;;;4.55;2.58;;;;;;;28.26;44.80;99521.72;2048286;86;29629;-61
2021/06/30 11:33:40;;;;;;;2.65;2.45;;;;;;;28.32;44.80;99524.47;2048746;86;27581;-61
2021/06/30 11:36:42;;;;;;;4.92;2.65;;;;;;;28.47;44.93;99519.27;2047278;87;29498;-60
2021/06/30 11:39:44;;;;;;;3.92;2.00;;;;;;;28.53;44.69;99524.48;2047270;86;31968;-60
2021/06/30 11:42:50;;;;;;;3.92;2.35;;;;;;;28.41;44.36;99527.03;2010617;87;32998;-62
2021/06/30 11:45:56;;;;;;;5.00;2.62;;;;;;;28.07;44.31;99528.89;1988834;89;29627;-60
2021/06/30 11:48:57;;;;;;;4.30;2.90;;;;;;;27.87;44.64;99529.70;1988918;89;27539;-60
2021/06/30 11:52:02;;;;;;;5.15;2.92;;;;;;;27.72;44.63;99534.00;2009030;87;28687;-61
2021/06/30 11:55:04;;;;;;;3.47;2.90;;;;;;;27.47;44.73;99530.45;2022993;87;31834;-61
2021/06/30 11:58:07;;;;;;;3.22;2.65;;;;;;;27.28;45.16;99529.30;2047214;87;32949;-61
2021/06/30 12:01:24;;;;;;;3.00;2.80;;;;;;;27.18;45.43;99536.55;2043739;87;30587;-62
2021/06/30 12:04:27;;;;;;;5.90;2.35;;;;;;;27.20;45.91;99539.08;1988525;88;27494;-60
2021/06/30 12:07:44;;;;;;;3.77;2.70;;;;;;;27.30;46.17;99532.16;1991920;87;29480;-60
2021/06/30 12:10:46;;;;;;;4.47;2.55;;;;;;;27.40;46.47;99533.66;2040833;87;32106;-61
2021/06/30 12:14:09;;;;;;;3.33;2.70;;;;;;;27.52;45.95;99543.07;2047195;86;32950;-60
2021/06/30 12:17:14;;;;;;;3.47;2.95;;;;;;;27.66;45.87;99535.69;2043504;87;29626;-60
2021/06/30 12:20:18;;;;;;;4.80;3.00;;;;;;;27.81;45.92;99537.41;1988509;88;27520;-60
2021/06/30 12:23:20;;;;;;;4.70;3.20;;;;;;;27.93;45.58;99545.40;2000871;87;28741;-66
2021/06/30 12:27:00;;;;;;;3.80;2.92;;;;;;;28.01;45.53;99538.84;2046875;86;31001;-66
2021/06/30 12:36:16;;;;;;;4.35;3.95;;;;;;;27.81;45.06;99542.41;1551542;112;27807;-71
2021/06/30 12:40:11;;;;;;;4.35;3.58;;;;;;;27.78;45.46;99547.48;1535426;115;29577;-61
2021/06/30 12:43:16;;;;;;;4.08;3.62;;;;;;;27.77;45.57;99555.42;1549344;114;27865;-62
2021/06/30 12:46:22;;;;;;;4.65;3.90;;;;;;;27.69;45.44;99561.96;1536083;114;33075;-62
2021/06/30 12:49:25;;;;;;;6.95;3.83;;;;;;;27.66;45.65;99554.95;1533247;114;27727;-63
2021/06/30 12:52:29;;;;;;;4.75;4.45;;;;;;;27.65;45.81;99558.75;1529452;116;27776;-63
2021/06/30 12:55:57;;;;;;;4.17;3.87;;;;;;;27.62;45.59;99549.56;1529558;116;29538;-62
2021/06/30 12:58:59;;;;;;;4.95;3.70;;;;;;;27.59;45.54;99545.84;1542168;114;31236;-62
2021/06/30 13:02:17;;;;;;;5.70;3.50;;;;;;;27.58;45.98;99553.77;1549305;114;32948;-63
2021/06/30 13:05:24;;;;;;;4.58;3.75;;;;;;;27.48;45.38;99547.79;1549328;114;29673;-61
2021/06/30 13:08:42;;;;;;;4.87;4.00;;;;;;;27.24;45.67;99555.50;1540700;114;27758;-62
2021/06/30 13:11:52;;;;;;;4.70;4.30;;;;;;;27.10;46.12;99555.44;1744253;100;28923;-62
2021/06/30 13:21:30;;;;;;;4.40;4.00;;;;;;;27.39;46.45;99553.45;1723674;98;27727;-61
2021/06/30 13:25:01;;;;;;;6.30;4.30;;;;;;;27.53;46.44;99557.15;1803734;97;27561;-62
2021/06/30 13:34:48;;;;;;;5.85;3.62;;;;;;;27.64;45.40;99562.55;1828055;96;33091;-62
2021/06/30 13:39:06;;;;;;;4.58;3.83;;;;;;;27.59;45.53;99567.85;1827952;97;29717;-61
2021/06/30 13:53:49;;;;;;;3.95;3.65;;;;;;;27.27;45.56;99564.19;1712991;103;29984;-61
2021/06/30 13:56:53;;;;;;;6.28;3.42;;;;;;;27.17;45.92;99555.98;1657244;105;29748;-61
2021/06/30 13:59:57;;;;;;;3.92;3.40;;;;;;;27.10;45.99;99556.81;1798801;98;27789;-61
2021/06/30 14:03:27;;;;;;;;;;;;;;;;;;;;;
2021/06/30 14:07:12;;;;;;;4.17;3.77;;;;;;;27.29;46.24;99555.20;1806780;96;28529;-61
2021/06/30 14:23:31;;;;;;;5.28;3.20;;;;;;;27.26;46.45;99532.23;1643632;106;28144;-62
2021/06/30 14:27:26;;;;;;;;;;;;;;;;;;;;;
2021/06/30 14:51:18;;;;;;;1.82;1.72;;;;;;;26.29;46.98;99521.56;1624450;108;28300;-60
2021/06/30 14:54:23;;;;;;;3.40;3.05;;;;;;;26.24;47.31;99530.37;1654552;106;33625;-61
2021/06/30 14:57:25;;;;;;;2.60;2.40;;;;;;;26.24;47.60;99523.50;1681882;105;29713;-61
2021/06/30 15:00:28;;;;;;;3.10;2.85;;;;;;;26.29;47.72;99523.77;1719430;101;27743;-61
2021/06/30 15:03:30;;;;;;;5.42;5.03;;;;;;;26.29;47.76;99530.63;1742765;100;28798;-61
2021/06/30 15:06:34;;;;;;;4.15;3.22;;;;;;;26.22;47.60;99528.37;1742565;102;30693;-62
2021/06/30 15:09:36;;;;;;;5.80;3.15;;;;;;;26.16;47.92;99529.98;1762693;91;33983;-60
2021/06/30 15:12:40;;;;;;;3.30;2.65;;;;;;;26.14;47.99;99528.49;1938348;90;29702;-61
2021/06/30 15:15:43;;;;;;;3.62;3.20;;;;;;;26.17;48.24;99528.94;2053540;85;27812;-62
2021/06/30 15:18:45;;;;;;;6.40;3.27;;;;;;;26.19;48.18;99521.36;2070960;86;28615;-62
2021/06/30 15:21:49;;;;;;;5.25;3.05;;;;;;;26.20;48.10;99512.62;2069360;86;30989;-62
2021/06/30 15:25:27;;;;;;;4.03;3.17;;;;;;;26.17;48.14;99519.33;2063768;86;32932;-72
2021/06/30 15:44:50;;;;;;;3.80;3.25;;;;;;;25.81;47.92;99511.16;2039121;84;34611;-59
2021/06/30 15:47:52;;;;;;;2.85;2.60;;;;;;;25.70;48.05;99516.62;2047529;86;27677;-60
2021/06/30 15:50:54;;;;;;;3.55;3.25;;;;;;;25.66;48.14;99515.31;2047435;87;28889;-60
2021/06/30 15:53:55;;;;;;;2.98;2.77;;;;;;;25.71;48.62;99522.45;2047889;85;31150;-61
2021/06/30 15:56:57;;;;;;;5.25;2.30;;;;;;;25.85;48.61;99525.65;2041883;85;32969;-61
2021/06/30 16:00:00;;;;;;;3.45;3.15;;;;;;;25.92;48.10;99519.72;2043399;85;29687;-59
2021/06/30 16:03:02;;;;;;;3.95;3.60;;;;;;;26.00;48.14;99531.59;2047396;86;27684;-59